sensor_id;sensor_type;location;lat;lon;timestamp;temperature;humidity
36206;DHT22;22242;48.796;9.930;2022-10-17T00:00:46;18.40;99.90
36206;DHT22;22242;48.796;9.930;2022-10-17T00:03:13;18.70;99.90
36206;DHT22;22242;48.796;9.930;2022-10-17T00:05:40;18.60;99.90
36206;DHT22;22242;48.796;9.930;2022-10-17T00:08:09;18.70;99.90
36206;DHT22;22242;48.796;9.930;2022-10-17T00:10:36;18.80;99.90
36206;DHT22;22242;48.796;9.930;2022-10-17T00:13:04;18.60;99.90
36206;DHT22;22242;48.796;9.930;2022-10-17T00:15:31;18.50;99.90
36206;DHT22;22242;48.796;9.930;2022-10-17T00:17:59;18.60;99.90
36206;DHT22;22242;48.796;9.930;2022-10-17T00:20:26;18.50;99.90
36206;DHT22;22242;48.796;9.930;2022-10-17T00:22:54;18.40;99.90
36206;DHT22;22242;48.796;9.930;2022-10-17T00:25:23;18.40;99.90
36206;DHT22;22242;48.796;9.930;2022-10-17T00:27:49;18.30;99.90
36206;DHT22;22242;48.796;9.930;2022-10-17T00:30:16;18.30;99.90
36206;DHT22;22242;48.796;9.930;2022-10-17T00:32:43;18.30;99.90
36206;DHT22;22242;48.796;9.930;2022-10-17T00:35:10;18.10;99.90
36206;DHT22;22242;48.796;9.930;2022-10-17T00:37:37;18.20;99.90
36206;DHT22;22242;48.796;9.930;2022-10-17T00:40:05;18.40;99.90
36206;DHT22;22242;48.796;9.930;2022-10-17T00:42:34;18.20;99.90
36206;DHT22;22242;48.796;9.930;2022-10-17T00:45:11;18.20;99.90
36206;DHT22;22242;48.796;9.930;2022-10-17T00:47:42;18.30;99.90
36206;DHT22;22242;48.796;9.930;2022-10-17T00:50:11;18.00;99.90
36206;DHT22;22242;48.796;9.930;2022-10-17T00:52:39;18.20;99.90
36206;DHT22;22242;48.796;9.930;2022-10-17T00:55:11;18.20;99.90
36206;DHT22;22242;48.796;9.930;2022-10-17T00:57:42;18.20;99.90
36206;DHT22;22242;48.796;9.930;2022-10-17T01:00:12;18.20;99.90
36206;DHT22;22242;48.796;9.930;2022-10-17T01:02:40;18.30;99.90
36206;DHT22;22242;48.796;9.930;2022-10-17T01:05:08;18.30;99.90
36206;DHT22;22242;48.796;9.930;2022-10-17T01:07:35;18.20;99.90
36206;DHT22;22242;48.796;9.930;2022-10-17T01:10:05;18.20;99.90
36206;DHT22;22242;48.796;9.930;2022-10-17T01:12:42;18.10;99.90
36206;DHT22;22242;48.796;9.930;2022-10-17T01:15:15;18.10;99.90
36206;DHT22;22242;48.796;9.930;2022-10-17T01:17:54;18.00;99.90
36206;DHT22;22242;48.796;9.930;2022-10-17T01:20:55;17.60;99.90
36206;DHT22;22242;48.796;9.930;2022-10-17T01:26:22;17.50;99.90
36206;DHT22;22242;48.796;9.930;2022-10-17T01:29:19;17.30;99.90
36206;DHT22;22242;48.796;9.930;2022-10-17T01:31:58;16.80;99.90
36206;DHT22;22242;48.796;9.930;2022-10-17T01:34:30;16.50;99.90
36206;DHT22;22242;48.796;9.930;2022-10-17T01:37:01;16.30;99.90
36206;DHT22;22242;48.796;9.930;2022-10-17T01:39:37;16.10;99.90
36206;DHT22;22242;48.796;9.930;2022-10-17T01:42:10;15.90;99.90
36206;DHT22;22242;48.796;9.930;2022-10-17T01:44:44;15.60;99.90
36206;DHT22;22242;48.796;9.930;2022-10-17T01:47:16;15.50;99.90
36206;DHT22;22242;48.796;9.930;2022-10-17T01:49:44;15.30;99.90
36206;DHT22;22242;48.796;9.930;2022-10-17T01:52:14;15.10;99.90
36206;DHT22;22242;48.796;9.930;2022-10-17T01:54:45;15.10;99.90
36206;DHT22;22242;48.796;9.930;2022-10-17T01:57:18;15.00;99.90
36206;DHT22;22242;48.796;9.930;2022-10-17T01:59:47;14.80;99.90
36206;DHT22;22242;48.796;9.930;2022-10-17T02:02:18;14.70;99.90
36206;DHT22;22242;48.796;9.930;2022-10-17T02:04:46;14.60;99.90
36206;DHT22;22242;48.796;9.930;2022-10-17T02:07:15;14.50;99.90
36206;DHT22;22242;48.796;9.930;2022-10-17T02:09:42;14.50;99.90
36206;DHT22;22242;48.796;9.930;2022-10-17T02:12:28;14.60;99.90
36206;DHT22;22242;48.796;9.930;2022-10-17T02:15:09;14.60;99.90
36206;DHT22;22242;48.796;9.930;2022-10-17T02:17:47;14.50;99.90
36206;DHT22;22242;48.796;9.930;2022-10-17T02:20:23;14.50;99.90
36206;DHT22;22242;48.796;9.930;2022-10-17T02:22:53;14.40;99.90
36206;DHT22;22242;48.796;9.930;2022-10-17T02:25:29;14.40;99.90
36206;DHT22;22242;48.796;9.930;2022-10-17T02:28:02;14.30;99.90
36206;DHT22;22242;48.796;9.930;2022-10-17T02:30:35;14.40;99.90
36206;DHT22;22242;48.796;9.930;2022-10-17T02:33:08;14.40;99.90
36206;DHT22;22242;48.796;9.930;2022-10-17T02:35:39;14.30;99.90
36206;DHT22;22242;48.796;9.930;2022-10-17T02:38:10;14.30;99.90
36206;DHT22;22242;48.796;9.930;2022-10-17T02:40:39;14.20;99.90
36206;DHT22;22242;48.796;9.930;2022-10-17T02:43:07;14.20;99.90
36206;DHT22;22242;48.796;9.930;2022-10-17T02:45:36;14.10;99.90
36206;DHT22;22242;48.796;9.930;2022-10-17T02:48:07;14.00;99.90
36206;DHT22;22242;48.796;9.930;2022-10-17T02:50:43;14.10;99.90
36206;DHT22;22242;48.796;9.930;2022-10-17T02:53:14;14.00;99.90
36206;DHT22;22242;48.796;9.930;2022-10-17T02:55:47;14.00;99.90
36206;DHT22;22242;48.796;9.930;2022-10-17T02:58:18;14.00;99.90
36206;DHT22;22242;48.796;9.930;2022-10-17T03:00:47;13.90;99.90
36206;DHT22;22242;48.796;9.930;2022-10-17T03:03:21;13.90;99.90
36206;DHT22;22242;48.796;9.930;2022-10-17T03:05:49;14.00;99.90
36206;DHT22;22242;48.796;9.930;2022-10-17T03:08:16;14.00;99.90
36206;DHT22;22242;48.796;9.930;2022-10-17T03:10:44;14.00;99.90
36206;DHT22;22242;48.796;9.930;2022-10-17T03:13:10;14.00;99.90
36206;DHT22;22242;48.796;9.930;2022-10-17T03:15:39;14.10;99.90
36206;DHT22;22242;48.796;9.930;2022-10-17T03:18:07;14.00;99.90
36206;DHT22;22242;48.796;9.930;2022-10-17T03:20:35;14.00;99.90
36206;DHT22;22242;48.796;9.930;2022-10-17T03:23:02;14.00;99.90
36206;DHT22;22242;48.796;9.930;2022-10-17T03:25:29;14.00;99.90
36206;DHT22;22242;48.796;9.930;2022-10-17T03:27:57;14.10;99.90
36206;DHT22;22242;48.796;9.930;2022-10-17T03:30:25;14.00;99.90
36206;DHT22;22242;48.796;9.930;2022-10-17T03:32:52;14.00;99.90
36206;DHT22;22242;48.796;9.930;2022-10-17T03:35:19;13.90;99.90
36206;DHT22;22242;48.796;9.930;2022-10-17T03:37:50;13.90;99.90
36206;DHT22;22242;48.796;9.930;2022-10-17T03:40:20;13.90;99.90
36206;DHT22;22242;48.796;9.930;2022-10-17T03:42:46;13.90;99.90
36206;DHT22;22242;48.796;9.930;2022-10-17T03:45:13;13.80;99.90
36206;DHT22;22242;48.796;9.930;2022-10-17T03:47:41;13.80;99.90
36206;DHT22;22242;48.796;9.930;2022-10-17T03:50:08;13.70;99.90
36206;DHT22;22242;48.796;9.930;2022-10-17T03:52:37;13.60;99.90
36206;DHT22;22242;48.796;9.930;2022-10-17T03:55:06;13.40;99.90
36206;DHT22;22242;48.796;9.930;2022-10-17T03:57:33;13.40;99.90
36206;DHT22;22242;48.796;9.930;2022-10-17T04:00:02;13.40;99.90
36206;DHT22;22242;48.796;9.930;2022-10-17T04:02:40;13.30;99.90
36206;DHT22;22242;48.796;9.930;2022-10-17T04:05:10;13.20;99.90
36206;DHT22;22242;48.796;9.930;2022-10-17T04:07:37;13.10;99.90
36206;DHT22;22242;48.796;9.930;2022-10-17T04:10:06;13.00;99.90
36206;DHT22;22242;48.796;9.930;2022-10-17T04:12:34;12.90;99.90
36206;DHT22;22242;48.796;9.930;2022-10-17T04:15:01;12.80;99.90
36206;DHT22;22242;48.796;9.930;2022-10-17T04:17:29;12.80;99.90
36206;DHT22;22242;48.796;9.930;2022-10-17T04:19:56;13.00;99.90
36206;DHT22;22242;48.796;9.930;2022-10-17T04:22:23;13.00;99.90
36206;DHT22;22242;48.796;9.930;2022-10-17T04:24:50;13.10;99.90
36206;DHT22;22242;48.796;9.930;2022-10-17T04:27:34;13.00;99.90
36206;DHT22;22242;48.796;9.930;2022-10-17T04:30:01;13.00;99.90
36206;DHT22;22242;48.796;9.930;2022-10-17T04:32:30;12.90;99.90
36206;DHT22;22242;48.796;9.930;2022-10-17T04:35:06;12.80;99.90
36206;DHT22;22242;48.796;9.930;2022-10-17T04:37:33;12.80;99.90
36206;DHT22;22242;48.796;9.930;2022-10-17T04:40:07;12.70;99.90
36206;DHT22;22242;48.796;9.930;2022-10-17T04:42:36;12.60;99.90
36206;DHT22;22242;48.796;9.930;2022-10-17T04:45:04;12.60;99.90
36206;DHT22;22242;48.796;9.930;2022-10-17T04:47:31;12.50;99.90
36206;DHT22;22242;48.796;9.930;2022-10-17T04:49:59;12.50;99.90
36206;DHT22;22242;48.796;9.930;2022-10-17T04:52:25;12.40;99.90
36206;DHT22;22242;48.796;9.930;2022-10-17T04:54:52;12.40;99.90
36206;DHT22;22242;48.796;9.930;2022-10-17T04:57:20;12.30;99.90
36206;DHT22;22242;48.796;9.930;2022-10-17T05:00:03;12.30;99.90
36206;DHT22;22242;48.796;9.930;2022-10-17T05:02:59;12.20;99.90
36206;DHT22;22242;48.796;9.930;2022-10-17T05:05:27;12.30;99.90
36206;DHT22;22242;48.796;9.930;2022-10-17T05:07:55;12.40;99.90
36206;DHT22;22242;48.796;9.930;2022-10-17T05:10:24;12.40;99.90
36206;DHT22;22242;48.796;9.930;2022-10-17T05:12:53;12.40;99.90
36206;DHT22;22242;48.796;9.930;2022-10-17T05:15:25;12.40;99.90
36206;DHT22;22242;48.796;9.930;2022-10-17T05:17:54;12.40;99.90
36206;DHT22;22242;48.796;9.930;2022-10-17T05:20:21;12.50;99.90
36206;DHT22;22242;48.796;9.930;2022-10-17T05:22:48;12.50;99.90
36206;DHT22;22242;48.796;9.930;2022-10-17T05:25:16;12.60;99.90
36206;DHT22;22242;48.796;9.930;2022-10-17T05:27:43;12.60;99.90
36206;DHT22;22242;48.796;9.930;2022-10-17T05:30:11;12.60;99.90
36206;DHT22;22242;48.796;9.930;2022-10-17T05:32:40;12.50;99.90
36206;DHT22;22242;48.796;9.930;2022-10-17T05:35:08;12.50;99.90
36206;DHT22;22242;48.796;9.930;2022-10-17T05:37:36;12.60;99.90
36206;DHT22;22242;48.796;9.930;2022-10-17T05:40:04;12.80;99.90
36206;DHT22;22242;48.796;9.930;2022-10-17T05:42:31;12.90;99.90
36206;DHT22;22242;48.796;9.930;2022-10-17T05:44:58;13.10;99.90
36206;DHT22;22242;48.796;9.930;2022-10-17T05:47:25;13.30;99.90
36206;DHT22;22242;48.796;9.930;2022-10-17T05:49:54;13.40;99.90
36206;DHT22;22242;48.796;9.930;2022-10-17T05:52:26;13.50;99.90
36206;DHT22;22242;48.796;9.930;2022-10-17T05:55:05;13.50;99.90
36206;DHT22;22242;48.796;9.930;2022-10-17T05:57:32;13.70;99.90
36206;DHT22;22242;48.796;9.930;2022-10-17T06:00:00;13.80;99.90
36206;DHT22;22242;48.796;9.930;2022-10-17T06:02:39;13.70;99.90
36206;DHT22;22242;48.796;9.930;2022-10-17T06:05:08;13.80;99.90
36206;DHT22;22242;48.796;9.930;2022-10-17T06:07:35;13.90;99.90
36206;DHT22;22242;48.796;9.930;2022-10-17T06:10:04;13.90;99.90
36206;DHT22;22242;48.796;9.930;2022-10-17T06:12:31;14.00;99.90
36206;DHT22;22242;48.796;9.930;2022-10-17T06:14:58;14.10;99.90
36206;DHT22;22242;48.796;9.930;2022-10-17T06:17:25;14.30;99.90
36206;DHT22;22242;48.796;9.930;2022-10-17T06:19:53;14.50;99.90
36206;DHT22;22242;48.796;9.930;2022-10-17T06:22:23;14.70;99.90
36206;DHT22;22242;48.796;9.930;2022-10-17T06:24:50;14.70;99.90
36206;DHT22;22242;48.796;9.930;2022-10-17T06:27:17;14.70;99.90
36206;DHT22;22242;48.796;9.930;2022-10-17T06:29:44;14.70;99.90
36206;DHT22;22242;48.796;9.930;2022-10-17T06:32:11;14.70;99.90
36206;DHT22;22242;48.796;9.930;2022-10-17T06:34:37;14.70;99.90
36206;DHT22;22242;48.796;9.930;2022-10-17T06:37:04;14.70;99.90
36206;DHT22;22242;48.796;9.930;2022-10-17T06:39:35;14.70;99.90
36206;DHT22;22242;48.796;9.930;2022-10-17T06:42:10;14.80;99.90
36206;DHT22;22242;48.796;9.930;2022-10-17T06:45:07;14.90;99.90
36206;DHT22;22242;48.796;9.930;2022-10-17T06:47:53;15.00;99.90
36206;DHT22;22242;48.796;9.930;2022-10-17T06:50:41;15.10;99.90
36206;DHT22;22242;48.796;9.930;2022-10-17T06:53:12;15.10;99.90
36206;DHT22;22242;48.796;9.930;2022-10-17T06:55:51;14.70;99.90
36206;DHT22;22242;48.796;9.930;2022-10-17T06:58:34;14.30;99.90
36206;DHT22;22242;48.796;9.930;2022-10-17T07:01:08;14.00;99.90
36206;DHT22;22242;48.796;9.930;2022-10-17T07:03:35;14.10;99.90
36206;DHT22;22242;48.796;9.930;2022-10-17T07:06:03;14.20;99.90
36206;DHT22;22242;48.796;9.930;2022-10-17T07:08:30;14.90;99.90
36206;DHT22;22242;48.796;9.930;2022-10-17T07:11:09;16.60;99.90
36206;DHT22;22242;48.796;9.930;2022-10-17T07:13:36;17.60;99.90
36206;DHT22;22242;48.796;9.930;2022-10-17T07:16:03;18.30;99.90
36206;DHT22;22242;48.796;9.930;2022-10-17T07:18:31;18.90;99.90
36206;DHT22;22242;48.796;9.930;2022-10-17T07:20:58;18.70;99.90
36206;DHT22;22242;48.796;9.930;2022-10-17T07:23:25;18.60;99.90
36206;DHT22;22242;48.796;9.930;2022-10-17T07:25:57;18.70;99.90
36206;DHT22;22242;48.796;9.930;2022-10-17T07:28:26;18.80;99.90
36206;DHT22;22242;48.796;9.930;2022-10-17T07:30:55;19.60;99.90
36206;DHT22;22242;48.796;9.930;2022-10-17T07:33:21;20.80;99.90
36206;DHT22;22242;48.796;9.930;2022-10-17T07:35:48;22.00;99.90
36206;DHT22;22242;48.796;9.930;2022-10-17T07:38:17;22.80;99.90
36206;DHT22;22242;48.796;9.930;2022-10-17T07:40:44;22.50;99.90
36206;DHT22;22242;48.796;9.930;2022-10-17T07:43:11;23.00;99.90
36206;DHT22;22242;48.796;9.930;2022-10-17T07:45:41;22.60;99.90
36206;DHT22;22242;48.796;9.930;2022-10-17T07:48:08;22.90;99.90
36206;DHT22;22242;48.796;9.930;2022-10-17T07:50:34;23.30;99.90
36206;DHT22;22242;48.796;9.930;2022-10-17T07:53:01;23.10;99.90
36206;DHT22;22242;48.796;9.930;2022-10-17T07:55:28;22.90;99.90
36206;DHT22;22242;48.796;9.930;2022-10-17T07:57:56;22.00;99.90
36206;DHT22;22242;48.796;9.930;2022-10-17T08:00:22;21.90;99.90
36206;DHT22;22242;48.796;9.930;2022-10-17T08:02:51;22.30;99.90
36206;DHT22;22242;48.796;9.930;2022-10-17T08:05:17;22.40;99.90
36206;DHT22;22242;48.796;9.930;2022-10-17T08:07:44;22.30;99.90
36206;DHT22;22242;48.796;9.930;2022-10-17T08:10:13;22.50;99.90
36206;DHT22;22242;48.796;9.930;2022-10-17T08:12:40;23.10;99.90
36206;DHT22;22242;48.796;9.930;2022-10-17T08:15:08;23.20;99.90
36206;DHT22;22242;48.796;9.930;2022-10-17T08:17:36;23.50;99.90
36206;DHT22;22242;48.796;9.930;2022-10-17T08:20:05;24.20;99.90
36206;DHT22;22242;48.796;9.930;2022-10-17T08:22:32;24.40;99.20
36206;DHT22;22242;48.796;9.930;2022-10-17T08:24:59;24.60;99.40
36206;DHT22;22242;48.796;9.930;2022-10-17T08:27:26;25.30;98.90
36206;DHT22;22242;48.796;9.930;2022-10-17T08:29:53;25.70;98.10
36206;DHT22;22242;48.796;9.930;2022-10-17T08:32:21;25.40;98.40
36206;DHT22;22242;48.796;9.930;2022-10-17T08:34:49;25.40;98.30
36206;DHT22;22242;48.796;9.930;2022-10-17T08:37:17;26.00;98.00
36206;DHT22;22242;48.796;9.930;2022-10-17T08:39:44;26.60;96.10
36206;DHT22;22242;48.796;9.930;2022-10-17T08:42:25;26.20;96.10
36206;DHT22;22242;48.796;9.930;2022-10-17T08:45:01;26.30;96.90
36206;DHT22;22242;48.796;9.930;2022-10-17T08:47:34;26.40;96.30
36206;DHT22;22242;48.796;9.930;2022-10-17T08:50:04;26.60;95.70
36206;DHT22;22242;48.796;9.930;2022-10-17T08:52:37;26.40;96.30
36206;DHT22;22242;48.796;9.930;2022-10-17T08:55:13;26.80;96.30
36206;DHT22;22242;48.796;9.930;2022-10-17T08:57:41;27.00;96.30
36206;DHT22;22242;48.796;9.930;2022-10-17T09:00:15;27.80;94.00
36206;DHT22;22242;48.796;9.930;2022-10-17T09:02:51;29.30;92.40
36206;DHT22;22242;48.796;9.930;2022-10-17T09:05:36;28.50;93.70
36206;DHT22;22242;48.796;9.930;2022-10-17T09:08:14;27.10;94.90
36206;DHT22;22242;48.796;9.930;2022-10-17T09:10:54;26.00;97.00
36206;DHT22;22242;48.796;9.930;2022-10-17T09:13:30;26.50;97.50
36206;DHT22;22242;48.796;9.930;2022-10-17T09:16:35;27.60;96.40
36206;DHT22;22242;48.796;9.930;2022-10-17T09:19:10;28.70;95.00
36206;DHT22;22242;48.796;9.930;2022-10-17T09:21:42;28.30;94.50
36206;DHT22;22242;48.796;9.930;2022-10-17T09:24:15;28.70;94.90
36206;DHT22;22242;48.796;9.930;2022-10-17T09:26:44;28.40;93.90
36206;DHT22;22242;48.796;9.930;2022-10-17T09:29:17;27.70;95.20
36206;DHT22;22242;48.796;9.930;2022-10-17T09:31:48;28.10;95.10
36206;DHT22;22242;48.796;9.930;2022-10-17T09:34:17;28.60;95.30
36206;DHT22;22242;48.796;9.930;2022-10-17T09:36:44;28.70;93.20
36206;DHT22;22242;48.796;9.930;2022-10-17T09:39:15;29.00;93.20
36206;DHT22;22242;48.796;9.930;2022-10-17T09:41:46;29.00;94.10
36206;DHT22;22242;48.796;9.930;2022-10-17T09:44:17;29.70;93.10
36206;DHT22;22242;48.796;9.930;2022-10-17T09:46:56;29.50;91.40
36206;DHT22;22242;48.796;9.930;2022-10-17T09:49:30;29.90;92.00
36206;DHT22;22242;48.796;9.930;2022-10-17T09:51:57;29.90;92.10
36206;DHT22;22242;48.796;9.930;2022-10-17T09:54:28;30.00;91.00
36206;DHT22;22242;48.796;9.930;2022-10-17T09:57:00;30.20;92.40
36206;DHT22;22242;48.796;9.930;2022-10-17T09:59:32;30.40;91.60
36206;DHT22;22242;48.796;9.930;2022-10-17T10:04:58;29.60;93.00
36206;DHT22;22242;48.796;9.930;2022-10-17T10:07:27;29.40;93.90
36206;DHT22;22242;48.796;9.930;2022-10-17T10:09:57;28.00;95.40
36206;DHT22;22242;48.796;9.930;2022-10-17T10:12:26;28.20;96.40
36206;DHT22;22242;48.796;9.930;2022-10-17T10:14:53;27.40;97.60
36206;DHT22;22242;48.796;9.930;2022-10-17T10:17:35;26.80;98.40
36206;DHT22;22242;48.796;9.930;2022-10-17T10:20:24;26.30;99.20
36206;DHT22;22242;48.796;9.930;2022-10-17T10:23:06;26.80;98.60
36206;DHT22;22242;48.796;9.930;2022-10-17T10:25:34;27.00;99.40
36206;DHT22;22242;48.796;9.930;2022-10-17T10:28:01;27.30;98.40
36206;DHT22;22242;48.796;9.930;2022-10-17T10:30:34;27.50;98.40
36206;DHT22;22242;48.796;9.930;2022-10-17T10:33:01;28.00;96.10
36206;DHT22;22242;48.796;9.930;2022-10-17T10:35:31;28.00;95.70
36206;DHT22;22242;48.796;9.930;2022-10-17T10:38:01;28.40;95.10
36206;DHT22;22242;48.796;9.930;2022-10-17T10:40:31;28.40;94.30
36206;DHT22;22242;48.796;9.930;2022-10-17T10:43:00;28.40;93.70
36206;DHT22;22242;48.796;9.930;2022-10-17T10:45:37;28.50;92.40
36206;DHT22;22242;48.796;9.930;2022-10-17T10:48:16;29.00;92.30
36206;DHT22;22242;48.796;9.930;2022-10-17T10:50:45;28.60;92.90
36206;DHT22;22242;48.796;9.930;2022-10-17T10:53:28;28.50;93.70
36206;DHT22;22242;48.796;9.930;2022-10-17T10:55:58;28.40;91.60
36206;DHT22;22242;48.796;9.930;2022-10-17T10:58:38;28.80;93.20
36206;DHT22;22242;48.796;9.930;2022-10-17T11:01:19;28.60;93.90
36206;DHT22;22242;48.796;9.930;2022-10-17T11:03:59;28.00;93.80
36206;DHT22;22242;48.796;9.930;2022-10-17T11:06:31;28.10;95.20
36206;DHT22;22242;48.796;9.930;2022-10-17T11:09:11;27.50;95.50
36206;DHT22;22242;48.796;9.930;2022-10-17T11:11:42;27.80;96.60
36206;DHT22;22242;48.796;9.930;2022-10-17T11:14:15;28.00;96.70
36206;DHT22;22242;48.796;9.930;2022-10-17T11:16:44;28.80;95.40
36206;DHT22;22242;48.796;9.930;2022-10-17T11:19:17;28.30;96.00
36206;DHT22;22242;48.796;9.930;2022-10-17T11:21:52;27.80;96.10
36206;DHT22;22242;48.796;9.930;2022-10-17T11:24:24;27.60;97.10
36206;DHT22;22242;48.796;9.930;2022-10-17T11:26:57;27.10;98.10
36206;DHT22;22242;48.796;9.930;2022-10-17T11:29:29;27.00;96.60
36206;DHT22;22242;48.796;9.930;2022-10-17T11:31:59;26.70;98.40
36206;DHT22;22242;48.796;9.930;2022-10-17T11:34:31;26.30;98.50
36206;DHT22;22242;48.796;9.930;2022-10-17T11:37:01;25.90;99.60
36206;DHT22;22242;48.796;9.930;2022-10-17T11:39:36;25.90;98.70
36206;DHT22;22242;48.796;9.930;2022-10-17T11:42:08;26.10;98.20
36206;DHT22;22242;48.796;9.930;2022-10-17T11:44:40;25.90;97.30
36206;DHT22;22242;48.796;9.930;2022-10-17T11:47:13;25.60;97.70
36206;DHT22;22242;48.796;9.930;2022-10-17T11:49:48;25.60;99.00
36206;DHT22;22242;48.796;9.930;2022-10-17T11:52:26;25.60;97.80
36206;DHT22;22242;48.796;9.930;2022-10-17T11:54:56;25.80;98.90
36206;DHT22;22242;48.796;9.930;2022-10-17T11:57:36;25.90;97.60
36206;DHT22;22242;48.796;9.930;2022-10-17T12:00:21;25.50;98.50
36206;DHT22;22242;48.796;9.930;2022-10-17T12:02:55;25.90;99.80
36206;DHT22;22242;48.796;9.930;2022-10-17T12:05:27;25.60;99.20
36206;DHT22;22242;48.796;9.930;2022-10-17T12:08:02;25.60;98.50
36206;DHT22;22242;48.796;9.930;2022-10-17T12:10:38;25.90;98.50
36206;DHT22;22242;48.796;9.930;2022-10-17T12:13:51;25.60;98.40
36206;DHT22;22242;48.796;9.930;2022-10-17T12:16:43;25.90;98.00
36206;DHT22;22242;48.796;9.930;2022-10-17T12:22:21;25.60;98.20
36206;DHT22;22242;48.796;9.930;2022-10-17T12:24:59;25.50;98.20
36206;DHT22;22242;48.796;9.930;2022-10-17T12:27:41;25.30;96.60
36206;DHT22;22242;48.796;9.930;2022-10-17T12:30:19;25.20;95.10
36206;DHT22;22242;48.796;9.930;2022-10-17T12:33:16;25.30;94.80
36206;DHT22;22242;48.796;9.930;2022-10-17T12:35:47;25.20;95.40
36206;DHT22;22242;48.796;9.930;2022-10-17T12:38:23;25.00;93.50
36206;DHT22;22242;48.796;9.930;2022-10-17T12:40:58;24.90;93.70
36206;DHT22;22242;48.796;9.930;2022-10-17T12:43:48;24.80;92.10
36206;DHT22;22242;48.796;9.930;2022-10-17T12:52:21;24.50;93.10
36206;DHT22;22242;48.796;9.930;2022-10-17T12:55:00;24.60;93.30
36206;DHT22;22242;48.796;9.930;2022-10-17T12:57:34;24.50;94.70
36206;DHT22;22242;48.796;9.930;2022-10-17T13:00:04;24.20;92.30
36206;DHT22;22242;48.796;9.930;2022-10-17T13:02:38;24.10;94.80
36206;DHT22;22242;48.796;9.930;2022-10-17T13:05:13;24.10;93.60
36206;DHT22;22242;48.796;9.930;2022-10-17T13:07:43;23.90;94.20
36206;DHT22;22242;48.796;9.930;2022-10-17T13:10:19;23.80;93.30
36206;DHT22;22242;48.796;9.930;2022-10-17T13:12:46;23.60;93.60
36206;DHT22;22242;48.796;9.930;2022-10-17T13:15:17;23.70;94.10
36206;DHT22;22242;48.796;9.930;2022-10-17T13:17:45;23.70;94.30
36206;DHT22;22242;48.796;9.930;2022-10-17T13:20:23;23.50;94.60
36206;DHT22;22242;48.796;9.930;2022-10-17T13:22:53;23.60;94.10
36206;DHT22;22242;48.796;9.930;2022-10-17T13:25:20;23.50;94.50
36206;DHT22;22242;48.796;9.930;2022-10-17T13:27:47;23.60;94.50
36206;DHT22;22242;48.796;9.930;2022-10-17T13:30:23;23.50;95.80
36206;DHT22;22242;48.796;9.930;2022-10-17T13:32:50;23.40;94.80
36206;DHT22;22242;48.796;9.930;2022-10-17T13:35:26;23.40;95.90
36206;DHT22;22242;48.796;9.930;2022-10-17T13:37:53;23.30;96.20
36206;DHT22;22242;48.796;9.930;2022-10-17T13:40:23;23.30;96.00
36206;DHT22;22242;48.796;9.930;2022-10-17T13:42:51;23.20;95.50
36206;DHT22;22242;48.796;9.930;2022-10-17T13:45:25;23.30;95.80
36206;DHT22;22242;48.796;9.930;2022-10-17T13:47:53;23.20;96.10
36206;DHT22;22242;48.796;9.930;2022-10-17T13:50:28;23.10;95.80
36206;DHT22;22242;48.796;9.930;2022-10-17T13:53:18;23.20;95.80
36206;DHT22;22242;48.796;9.930;2022-10-17T13:55:57;23.30;96.00
36206;DHT22;22242;48.796;9.930;2022-10-17T13:58:25;23.20;97.40
36206;DHT22;22242;48.796;9.930;2022-10-17T14:00:55;23.20;97.10
36206;DHT22;22242;48.796;9.930;2022-10-17T14:03:22;23.20;97.30
36206;DHT22;22242;48.796;9.930;2022-10-17T14:06:07;23.10;96.90
36206;DHT22;22242;48.796;9.930;2022-10-17T14:08:38;23.20;96.00
36206;DHT22;22242;48.796;9.930;2022-10-17T14:11:20;23.10;97.50
36206;DHT22;22242;48.796;9.930;2022-10-17T14:13:49;23.10;97.40
36206;DHT22;22242;48.796;9.930;2022-10-17T14:16:17;23.00;97.10
36206;DHT22;22242;48.796;9.930;2022-10-17T14:18:47;22.80;98.50
36206;DHT22;22242;48.796;9.930;2022-10-17T14:21:20;22.80;98.30
36206;DHT22;22242;48.796;9.930;2022-10-17T14:23:48;22.70;98.50
36206;DHT22;22242;48.796;9.930;2022-10-17T14:26:17;22.70;98.70
36206;DHT22;22242;48.796;9.930;2022-10-17T14:28:47;22.70;99.80
36206;DHT22;22242;48.796;9.930;2022-10-17T14:31:24;22.50;99.90
36206;DHT22;22242;48.796;9.930;2022-10-17T14:33:54;22.60;99.90
36206;DHT22;22242;48.796;9.930;2022-10-17T14:36:32;22.50;99.90
36206;DHT22;22242;48.796;9.930;2022-10-17T14:38:59;22.40;99.90
36206;DHT22;22242;48.796;9.930;2022-10-17T14:41:28;22.40;99.90
36206;DHT22;22242;48.796;9.930;2022-10-17T14:43:58;22.30;99.90
36206;DHT22;22242;48.796;9.930;2022-10-17T14:46:25;22.30;99.90
36206;DHT22;22242;48.796;9.930;2022-10-17T14:49:04;22.20;99.90
36206;DHT22;22242;48.796;9.930;2022-10-17T14:51:32;22.10;99.90
36206;DHT22;22242;48.796;9.930;2022-10-17T14:54:02;22.20;99.90
36206;DHT22;22242;48.796;9.930;2022-10-17T14:56:36;22.10;99.90
36206;DHT22;22242;48.796;9.930;2022-10-17T14:59:03;22.00;99.90
36206;DHT22;22242;48.796;9.930;2022-10-17T15:01:32;21.90;99.90
36206;DHT22;22242;48.796;9.930;2022-10-17T15:03:59;21.70;99.90
36206;DHT22;22242;48.796;9.930;2022-10-17T15:06:28;21.70;99.90
36206;DHT22;22242;48.796;9.930;2022-10-17T15:08:57;21.60;99.90
36206;DHT22;22242;48.796;9.930;2022-10-17T15:11:24;21.50;99.90
36206;DHT22;22242;48.796;9.930;2022-10-17T15:13:51;21.40;99.90
36206;DHT22;22242;48.796;9.930;2022-10-17T15:16:19;21.40;99.90
36206;DHT22;22242;48.796;9.930;2022-10-17T15:18:47;21.50;99.90
36206;DHT22;22242;48.796;9.930;2022-10-17T15:21:15;21.40;99.90
36206;DHT22;22242;48.796;9.930;2022-10-17T15:23:43;21.20;99.90
36206;DHT22;22242;48.796;9.930;2022-10-17T15:26:14;21.00;99.90
36206;DHT22;22242;48.796;9.930;2022-10-17T15:28:42;20.90;99.90
36206;DHT22;22242;48.796;9.930;2022-10-17T15:31:11;20.70;99.90
36206;DHT22;22242;48.796;9.930;2022-10-17T15:33:38;20.60;99.90
36206;DHT22;22242;48.796;9.930;2022-10-17T15:36:17;20.50;99.90
36206;DHT22;22242;48.796;9.930;2022-10-17T15:38:44;20.60;99.90
36206;DHT22;22242;48.796;9.930;2022-10-17T15:41:12;20.50;99.90
36206;DHT22;22242;48.796;9.930;2022-10-17T15:43:39;20.30;99.90
36206;DHT22;22242;48.796;9.930;2022-10-17T15:46:10;20.10;99.90
36206;DHT22;22242;48.796;9.930;2022-10-17T15:48:37;20.00;99.90
36206;DHT22;22242;48.796;9.930;2022-10-17T15:51:04;20.00;99.90
36206;DHT22;22242;48.796;9.930;2022-10-17T15:53:31;20.00;99.90
36206;DHT22;22242;48.796;9.930;2022-10-17T15:55:58;19.80;99.90
36206;DHT22;22242;48.796;9.930;2022-10-17T15:58:27;19.70;99.90
36206;DHT22;22242;48.796;9.930;2022-10-17T16:00:56;19.60;99.90
36206;DHT22;22242;48.796;9.930;2022-10-17T16:03:22;19.50;99.90
36206;DHT22;22242;48.796;9.930;2022-10-17T16:05:49;19.50;99.90
36206;DHT22;22242;48.796;9.930;2022-10-17T16:08:16;19.40;99.90
36206;DHT22;22242;48.796;9.930;2022-10-17T16:10:43;19.30;99.90